sensor_id;sensor_type;location;lat;lon;timestamp;P1;durP1;ratioP1;P2;durP2;ratioP2
28802;SDS011;15949;55.656;37.422;2023-12-22T00:02:26;17.05;;;11.40;;
28802;SDS011;15949;55.656;37.422;2023-12-22T00:07:33;16.27;;;10.38;;
28802;SDS011;15949;55.656;37.422;2023-12-22T00:12:39;17.45;;;11.57;;
28802;SDS011;15949;55.656;37.422;2023-12-22T00:17:46;18.17;;;12.48;;
28802;SDS011;15949;55.656;37.422;2023-12-22T00:22:52;18.88;;;12.38;;
28802;SDS011;15949;55.656;37.422;2023-12-22T00:27:58;17.13;;;10.45;;
28802;SDS011;15949;55.656;37.422;2023-12-22T00:33:04;15.98;;;10.98;;
28802;SDS011;15949;55.656;37.422;2023-12-22T00:38:09;17.08;;;10.18;;
28802;SDS011;15949;55.656;37.422;2023-12-22T00:43:15;18.02;;;10.23;;
28802;SDS011;15949;55.656;37.422;2023-12-22T00:48:21;15.30;;;9.98;;
28802;SDS011;15949;55.656;37.422;2023-12-22T00:53:26;17.17;;;10.43;;
28802;SDS011;15949;55.656;37.422;2023-12-22T00:58:32;15.88;;;10.77;;
28802;SDS011;15949;55.656;37.422;2023-12-22T01:03:38;16.05;;;10.23;;
28802;SDS011;15949;55.656;37.422;2023-12-22T01:08:43;16.50;;;10.02;;
28802;SDS011;15949;55.656;37.422;2023-12-22T01:13:49;17.25;;;10.35;;
28802;SDS011;15949;55.656;37.422;2023-12-22T01:18:55;14.85;;;10.40;;
28802;SDS011;15949;55.656;37.422;2023-12-22T01:24:00;19.48;;;11.27;;
28802;SDS011;15949;55.656;37.422;2023-12-22T01:29:06;16.10;;;10.65;;
28802;SDS011;15949;55.656;37.422;2023-12-22T01:34:11;21.38;;;11.02;;
28802;SDS011;15949;55.656;37.422;2023-12-22T01:39:17;17.80;;;10.80;;
28802;SDS011;15949;55.656;37.422;2023-12-22T01:44:23;17.52;;;10.52;;
28802;SDS011;15949;55.656;37.422;2023-12-22T01:49:28;16.58;;;10.63;;
28802;SDS011;15949;55.656;37.422;2023-12-22T01:54:34;18.75;;;10.75;;
28802;SDS011;15949;55.656;37.422;2023-12-22T01:59:40;19.73;;;11.18;;
28802;SDS011;15949;55.656;37.422;2023-12-22T02:04:46;18.80;;;11.23;;
28802;SDS011;15949;55.656;37.422;2023-12-22T02:09:52;18.50;;;11.40;;
28802;SDS011;15949;55.656;37.422;2023-12-22T02:14:58;17.63;;;11.93;;
28802;SDS011;15949;55.656;37.422;2023-12-22T02:20:04;17.40;;;11.27;;
28802;SDS011;15949;55.656;37.422;2023-12-22T02:25:11;18.83;;;11.98;;
28802;SDS011;15949;55.656;37.422;2023-12-22T02:30:19;16.73;;;10.95;;
28802;SDS011;15949;55.656;37.422;2023-12-22T02:35:32;18.45;;;11.25;;
28802;SDS011;15949;55.656;37.422;2023-12-22T02:40:40;18.13;;;11.00;;
28802;SDS011;15949;55.656;37.422;2023-12-22T02:45:50;17.20;;;11.63;;
28802;SDS011;15949;55.656;37.422;2023-12-22T02:50:56;16.60;;;11.60;;
28802;SDS011;15949;55.656;37.422;2023-12-22T02:56:01;17.20;;;11.48;;
28802;SDS011;15949;55.656;37.422;2023-12-22T03:01:08;18.60;;;11.35;;
28802;SDS011;15949;55.656;37.422;2023-12-22T03:06:13;17.83;;;12.23;;
28802;SDS011;15949;55.656;37.422;2023-12-22T03:11:19;14.70;;;11.57;;
28802;SDS011;15949;55.656;37.422;2023-12-22T03:16:24;19.45;;;12.73;;
28802;SDS011;15949;55.656;37.422;2023-12-22T03:21:30;19.10;;;12.70;;
28802;SDS011;15949;55.656;37.422;2023-12-22T03:26:36;16.15;;;12.07;;
28802;SDS011;15949;55.656;37.422;2023-12-22T03:31:41;17.40;;;12.30;;
28802;SDS011;15949;55.656;37.422;2023-12-22T03:36:47;18.15;;;12.98;;
28802;SDS011;15949;55.656;37.422;2023-12-22T03:41:53;19.30;;;13.05;;
28802;SDS011;15949;55.656;37.422;2023-12-22T03:46:59;20.90;;;13.25;;
28802;SDS011;15949;55.656;37.422;2023-12-22T03:52:05;19.08;;;13.13;;
28802;SDS011;15949;55.656;37.422;2023-12-22T03:57:10;19.17;;;13.70;;
28802;SDS011;15949;55.656;37.422;2023-12-22T04:02:16;17.13;;;13.23;;
28802;SDS011;15949;55.656;37.422;2023-12-22T04:07:21;17.92;;;12.60;;
28802;SDS011;15949;55.656;37.422;2023-12-22T04:12:27;18.17;;;12.68;;
28802;SDS011;15949;55.656;37.422;2023-12-22T04:17:32;20.23;;;12.43;;
28802;SDS011;15949;55.656;37.422;2023-12-22T04:22:38;24.02;;;13.75;;
28802;SDS011;15949;55.656;37.422;2023-12-22T04:27:45;25.50;;;13.52;;
28802;SDS011;15949;55.656;37.422;2023-12-22T04:32:51;25.98;;;14.35;;
28802;SDS011;15949;55.656;37.422;2023-12-22T04:37:57;24.55;;;13.70;;
28802;SDS011;15949;55.656;37.422;2023-12-22T04:43:02;24.13;;;14.20;;
28802;SDS011;15949;55.656;37.422;2023-12-22T04:48:08;23.75;;;13.93;;
28802;SDS011;15949;55.656;37.422;2023-12-22T04:53:14;27.15;;;13.55;;
28802;SDS011;15949;55.656;37.422;2023-12-22T04:58:19;27.90;;;15.05;;
28802;SDS011;15949;55.656;37.422;2023-12-22T05:03:25;26.17;;;15.55;;
28802;SDS011;15949;55.656;37.422;2023-12-22T05:08:30;30.15;;;15.32;;
28802;SDS011;15949;55.656;37.422;2023-12-22T05:13:36;29.15;;;15.32;;
28802;SDS011;15949;55.656;37.422;2023-12-22T05:18:42;31.95;;;16.15;;
28802;SDS011;15949;55.656;37.422;2023-12-22T05:23:47;28.98;;;15.93;;
28802;SDS011;15949;55.656;37.422;2023-12-22T05:28:53;31.80;;;16.60;;
28802;SDS011;15949;55.656;37.422;2023-12-22T05:33:59;35.00;;;17.58;;
28802;SDS011;15949;55.656;37.422;2023-12-22T05:39:04;32.92;;;16.88;;
28802;SDS011;15949;55.656;37.422;2023-12-22T05:44:13;36.03;;;18.67;;
28802;SDS011;15949;55.656;37.422;2023-12-22T05:49:18;39.47;;;19.05;;
28802;SDS011;15949;55.656;37.422;2023-12-22T05:54:24;43.33;;;22.17;;
28802;SDS011;15949;55.656;37.422;2023-12-22T05:59:30;39.97;;;21.58;;
28802;SDS011;15949;55.656;37.422;2023-12-22T06:04:37;39.75;;;23.50;;
28802;SDS011;15949;55.656;37.422;2023-12-22T06:09:43;41.38;;;24.48;;
28802;SDS011;15949;55.656;37.422;2023-12-22T06:14:48;40.03;;;24.33;;
28802;SDS011;15949;55.656;37.422;2023-12-22T06:19:54;42.03;;;24.48;;
28802;SDS011;15949;55.656;37.422;2023-12-22T06:25:00;45.22;;;25.17;;
28802;SDS011;15949;55.656;37.422;2023-12-22T06:30:06;41.60;;;24.60;;
28802;SDS011;15949;55.656;37.422;2023-12-22T06:35:12;40.42;;;24.63;;
28802;SDS011;15949;55.656;37.422;2023-12-22T06:40:18;43.22;;;24.75;;
28802;SDS011;15949;55.656;37.422;2023-12-22T06:45:26;34.15;;;22.08;;
28802;SDS011;15949;55.656;37.422;2023-12-22T06:50:32;32.40;;;22.77;;
28802;SDS011;15949;55.656;37.422;2023-12-22T06:55:38;29.13;;;21.25;;
28802;SDS011;15949;55.656;37.422;2023-12-22T07:00:43;31.20;;;21.73;;
28802;SDS011;15949;55.656;37.422;2023-12-22T07:05:49;30.20;;;20.35;;
28802;SDS011;15949;55.656;37.422;2023-12-22T07:10:55;27.02;;;18.77;;
28802;SDS011;15949;55.656;37.422;2023-12-22T07:16:01;27.92;;;18.95;;
28802;SDS011;15949;55.656;37.422;2023-12-22T07:21:15;28.55;;;19.77;;
28802;SDS011;15949;55.656;37.422;2023-12-22T07:26:22;26.23;;;19.02;;
28802;SDS011;15949;55.656;37.422;2023-12-22T07:31:29;30.55;;;20.42;;
28802;SDS011;15949;55.656;37.422;2023-12-22T07:36:35;37.42;;;22.27;;
28802;SDS011;15949;55.656;37.422;2023-12-22T07:41:40;29.88;;;20.45;;
28802;SDS011;15949;55.656;37.422;2023-12-22T07:46:53;39.25;;;22.73;;
28802;SDS011;15949;55.656;37.422;2023-12-22T07:52:04;37.47;;;23.98;;
28802;SDS011;15949;55.656;37.422;2023-12-22T07:57:10;33.55;;;19.85;;
28802;SDS011;15949;55.656;37.422;2023-12-22T08:02:15;37.83;;;19.67;;
28802;SDS011;15949;55.656;37.422;2023-12-22T08:07:21;27.30;;;16.65;;
28802;SDS011;15949;55.656;37.422;2023-12-22T08:12:27;28.95;;;15.82;;
28802;SDS011;15949;55.656;37.422;2023-12-22T08:17:33;23.10;;;14.90;;
28802;SDS011;15949;55.656;37.422;2023-12-22T08:22:38;24.13;;;14.10;;
28802;SDS011;15949;55.656;37.422;2023-12-22T08:27:44;20.40;;;13.35;;
28802;SDS011;15949;55.656;37.422;2023-12-22T08:32:50;21.65;;;12.88;;
28802;SDS011;15949;55.656;37.422;2023-12-22T08:37:55;17.33;;;12.57;;
28802;SDS011;15949;55.656;37.422;2023-12-22T08:43:02;18.55;;;12.65;;
28802;SDS011;15949;55.656;37.422;2023-12-22T08:48:08;16.95;;;11.70;;
28802;SDS011;15949;55.656;37.422;2023-12-22T08:53:14;16.10;;;12.07;;
28802;SDS011;15949;55.656;37.422;2023-12-22T08:58:19;15.30;;;10.15;;
28802;SDS011;15949;55.656;37.422;2023-12-22T09:03:25;14.23;;;10.50;;
28802;SDS011;15949;55.656;37.422;2023-12-22T09:08:32;16.60;;;10.57;;
28802;SDS011;15949;55.656;37.422;2023-12-22T09:13:37;14.48;;;10.18;;
28802;SDS011;15949;55.656;37.422;2023-12-22T09:18:44;18.83;;;10.63;;
28802;SDS011;15949;55.656;37.422;2023-12-22T09:23:49;14.57;;;10.77;;
28802;SDS011;15949;55.656;37.422;2023-12-22T09:28:55;19.73;;;13.07;;
28802;SDS011;15949;55.656;37.422;2023-12-22T09:34:01;16.05;;;11.18;;
28802;SDS011;15949;55.656;37.422;2023-12-22T09:39:07;18.08;;;10.98;;
28802;SDS011;15949;55.656;37.422;2023-12-22T09:44:15;16.02;;;10.98;;
28802;SDS011;15949;55.656;37.422;2023-12-22T09:49:25;17.67;;;12.55;;
28802;SDS011;15949;55.656;37.422;2023-12-22T09:54:32;19.90;;;13.98;;
28802;SDS011;15949;55.656;37.422;2023-12-22T09:59:38;20.77;;;14.95;;
28802;SDS011;15949;55.656;37.422;2023-12-22T10:04:44;21.08;;;14.95;;
28802;SDS011;15949;55.656;37.422;2023-12-22T10:09:50;22.85;;;15.57;;
28802;SDS011;15949;55.656;37.422;2023-12-22T10:14:59;24.17;;;15.93;;
28802;SDS011;15949;55.656;37.422;2023-12-22T10:20:06;22.42;;;16.33;;
28802;SDS011;15949;55.656;37.422;2023-12-22T10:25:19;20.33;;;14.38;;
28802;SDS011;15949;55.656;37.422;2023-12-22T10:30:25;20.92;;;14.77;;
28802;SDS011;15949;55.656;37.422;2023-12-22T10:35:33;19.75;;;14.52;;
28802;SDS011;15949;55.656;37.422;2023-12-22T10:40:38;21.45;;;15.05;;
28802;SDS011;15949;55.656;37.422;2023-12-22T10:45:44;23.80;;;16.10;;
28802;SDS011;15949;55.656;37.422;2023-12-22T10:50:50;25.75;;;17.35;;
28802;SDS011;15949;55.656;37.422;2023-12-22T10:55:56;98.13;;;44.53;;
28802;SDS011;15949;55.656;37.422;2023-12-22T11:01:02;75.80;;;44.72;;
28802;SDS011;15949;55.656;37.422;2023-12-22T11:06:09;21.02;;;15.65;;
28802;SDS011;15949;55.656;37.422;2023-12-22T11:11:20;20.92;;;15.32;;
28802;SDS011;15949;55.656;37.422;2023-12-22T11:16:35;23.52;;;16.65;;
28802;SDS011;15949;55.656;37.422;2023-12-22T11:21:41;23.17;;;15.13;;
28802;SDS011;15949;55.656;37.422;2023-12-22T11:26:48;23.73;;;15.35;;
28802;SDS011;15949;55.656;37.422;2023-12-22T11:31:56;22.65;;;14.75;;
28802;SDS011;15949;55.656;37.422;2023-12-22T11:37:03;22.60;;;15.20;;
28802;SDS011;15949;55.656;37.422;2023-12-22T11:42:19;24.27;;;14.75;;
28802;SDS011;15949;55.656;37.422;2023-12-22T11:47:30;21.58;;;15.10;;
28802;SDS011;15949;55.656;37.422;2023-12-22T11:52:35;23.13;;;15.15;;
28802;SDS011;15949;55.656;37.422;2023-12-22T11:57:41;23.95;;;14.63;;
28802;SDS011;15949;55.656;37.422;2023-12-22T12:02:54;19.98;;;13.98;;
28802;SDS011;15949;55.656;37.422;2023-12-22T12:08:06;21.27;;;14.48;;
28802;SDS011;15949;55.656;37.422;2023-12-22T12:13:13;21.60;;;14.60;;
28802;SDS011;15949;55.656;37.422;2023-12-22T12:18:24;22.15;;;15.20;;
28802;SDS011;15949;55.656;37.422;2023-12-22T12:23:29;19.47;;;14.10;;
28802;SDS011;15949;55.656;37.422;2023-12-22T12:28:35;18.38;;;13.23;;
28802;SDS011;15949;55.656;37.422;2023-12-22T12:33:42;18.70;;;13.35;;
28802;SDS011;15949;55.656;37.422;2023-12-22T12:43:58;19.42;;;13.77;;
28802;SDS011;15949;55.656;37.422;2023-12-22T12:54:10;21.65;;;13.93;;
28802;SDS011;15949;55.656;37.422;2023-12-22T12:59:17;20.52;;;13.07;;
28802;SDS011;15949;55.656;37.422;2023-12-22T13:04:23;20.02;;;13.60;;
28802;SDS011;15949;55.656;37.422;2023-12-22T13:09:41;20.73;;;13.65;;
28802;SDS011;15949;55.656;37.422;2023-12-22T13:14:47;22.42;;;13.93;;
28802;SDS011;15949;55.656;37.422;2023-12-22T13:19:53;22.52;;;14.27;;
28802;SDS011;15949;55.656;37.422;2023-12-22T13:24:59;19.95;;;13.50;;
28802;SDS011;15949;55.656;37.422;2023-12-22T13:30:05;22.02;;;13.63;;
28802;SDS011;15949;55.656;37.422;2023-12-22T13:35:11;21.13;;;14.75;;
28802;SDS011;15949;55.656;37.422;2023-12-22T13:40:17;23.05;;;15.30;;
28802;SDS011;15949;55.656;37.422;2023-12-22T13:45:24;22.30;;;15.13;;
28802;SDS011;15949;55.656;37.422;2023-12-22T13:50:30;26.30;;;15.73;;
28802;SDS011;15949;55.656;37.422;2023-12-22T13:55:36;23.02;;;15.63;;
28802;SDS011;15949;55.656;37.422;2023-12-22T14:00:43;27.90;;;16.58;;
28802;SDS011;15949;55.656;37.422;2023-12-22T14:05:52;25.23;;;16.52;;
28802;SDS011;15949;55.656;37.422;2023-12-22T14:10:58;26.13;;;17.23;;
28802;SDS011;15949;55.656;37.422;2023-12-22T14:16:04;26.13;;;16.35;;
28802;SDS011;15949;55.656;37.422;2023-12-22T14:21:11;27.67;;;17.05;;
28802;SDS011;15949;55.656;37.422;2023-12-22T14:26:16;23.88;;;15.38;;
28802;SDS011;15949;55.656;37.422;2023-12-22T14:31:22;23.48;;;16.20;;
28802;SDS011;15949;55.656;37.422;2023-12-22T14:36:27;25.55;;;15.63;;
28802;SDS011;15949;55.656;37.422;2023-12-22T14:41:33;23.45;;;14.70;;
28802;SDS011;15949;55.656;37.422;2023-12-22T14:46:39;21.42;;;14.93;;
28802;SDS011;15949;55.656;37.422;2023-12-22T14:51:45;22.80;;;14.68;;
28802;SDS011;15949;55.656;37.422;2023-12-22T14:56:59;20.90;;;14.38;;
28802;SDS011;15949;55.656;37.422;2023-12-22T15:02:04;23.17;;;16.08;;
28802;SDS011;15949;55.656;37.422;2023-12-22T15:07:14;25.40;;;16.42;;
28802;SDS011;15949;55.656;37.422;2023-12-22T15:12:20;24.00;;;16.73;;
28802;SDS011;15949;55.656;37.422;2023-12-22T15:17:26;24.48;;;16.33;;
28802;SDS011;15949;55.656;37.422;2023-12-22T15:22:31;22.67;;;16.80;;
28802;SDS011;15949;55.656;37.422;2023-12-22T15:27:37;24.25;;;16.50;;
28802;SDS011;15949;55.656;37.422;2023-12-22T15:32:44;24.20;;;16.15;;
28802;SDS011;15949;55.656;37.422;2023-12-22T15:37:50;21.52;;;15.35;;
28802;SDS011;15949;55.656;37.422;2023-12-22T15:42:56;22.13;;;14.35;;
28802;SDS011;15949;55.656;37.422;2023-12-22T15:48:02;23.23;;;16.05;;
28802;SDS011;15949;55.656;37.422;2023-12-22T15:53:08;25.40;;;17.10;;
28802;SDS011;15949;55.656;37.422;2023-12-22T15:58:13;30.77;;;18.73;;
28802;SDS011;15949;55.656;37.422;2023-12-22T16:03:19;27.83;;;18.23;;
28802;SDS011;15949;55.656;37.422;2023-12-22T16:08:25;28.27;;;19.15;;
28802;SDS011;15949;55.656;37.422;2023-12-22T16:13:34;28.10;;;19.10;;
28802;SDS011;15949;55.656;37.422;2023-12-22T16:18:39;32.53;;;20.07;;
28802;SDS011;15949;55.656;37.422;2023-12-22T16:23:45;29.25;;;19.35;;
28802;SDS011;15949;55.656;37.422;2023-12-22T16:28:51;32.67;;;20.88;;
28802;SDS011;15949;55.656;37.422;2023-12-22T16:33:56;34.55;;;22.25;;
28802;SDS011;15949;55.656;37.422;2023-12-22T16:39:02;35.47;;;23.20;;
28802;SDS011;15949;55.656;37.422;2023-12-22T16:44:08;43.58;;;26.17;;
28802;SDS011;15949;55.656;37.422;2023-12-22T16:49:14;46.33;;;27.98;;
28802;SDS011;15949;55.656;37.422;2023-12-22T16:54:20;51.85;;;30.45;;
28802;SDS011;15949;55.656;37.422;2023-12-22T16:59:25;51.75;;;30.30;;
28802;SDS011;15949;55.656;37.422;2023-12-22T17:04:31;57.15;;;32.90;;
28802;SDS011;15949;55.656;37.422;2023-12-22T17:09:37;57.10;;;33.38;;
28802;SDS011;15949;55.656;37.422;2023-12-22T17:14:42;56.85;;;33.03;;
28802;SDS011;15949;55.656;37.422;2023-12-22T17:19:48;59.33;;;33.70;;
28802;SDS011;15949;55.656;37.422;2023-12-22T17:24:54;57.20;;;32.45;;
28802;SDS011;15949;55.656;37.422;2023-12-22T17:29:59;57.58;;;31.38;;
28802;SDS011;15949;55.656;37.422;2023-12-22T17:35:05;53.72;;;30.23;;
28802;SDS011;15949;55.656;37.422;2023-12-22T17:40:11;48.05;;;28.75;;
28802;SDS011;15949;55.656;37.422;2023-12-22T17:45:17;51.25;;;28.88;;
28802;SDS011;15949;55.656;37.422;2023-12-22T17:50:22;46.90;;;27.73;;
28802;SDS011;15949;55.656;37.422;2023-12-22T17:55:28;48.53;;;28.52;;
28802;SDS011;15949;55.656;37.422;2023-12-22T18:00:33;50.00;;;28.65;;
28802;SDS011;15949;55.656;37.422;2023-12-22T18:05:39;53.42;;;29.65;;
28802;SDS011;15949;55.656;37.422;2023-12-22T18:10:45;54.15;;;28.77;;
28802;SDS011;15949;55.656;37.422;2023-12-22T18:15:52;54.80;;;29.95;;
28802;SDS011;15949;55.656;37.422;2023-12-22T18:20:58;51.25;;;29.10;;
28802;SDS011;15949;55.656;37.422;2023-12-22T18:26:04;55.42;;;30.92;;
28802;SDS011;15949;55.656;37.422;2023-12-22T18:31:09;57.25;;;30.88;;
28802;SDS011;15949;55.656;37.422;2023-12-22T18:36:17;58.03;;;31.27;;
28802;SDS011;15949;55.656;37.422;2023-12-22T18:41:22;53.75;;;31.00;;
28802;SDS011;15949;55.656;37.422;2023-12-22T18:46:28;56.25;;;30.92;;
28802;SDS011;15949;55.656;37.422;2023-12-22T18:51:34;53.25;;;30.80;;
28802;SDS011;15949;55.656;37.422;2023-12-22T18:56:39;56.70;;;31.85;;
28802;SDS011;15949;55.656;37.422;2023-12-22T19:01:45;56.05;;;30.48;;
28802;SDS011;15949;55.656;37.422;2023-12-22T19:06:51;64.63;;;32.08;;
28802;SDS011;15949;55.656;37.422;2023-12-22T19:11:56;56.58;;;31.70;;
28802;SDS011;15949;55.656;37.422;2023-12-22T19:17:03;56.17;;;32.13;;
28802;SDS011;15949;55.656;37.422;2023-12-22T19:22:09;58.90;;;31.42;;
28802;SDS011;15949;55.656;37.422;2023-12-22T19:27:14;60.72;;;31.95;;
28802;SDS011;15949;55.656;37.422;2023-12-22T19:32:20;65.45;;;33.38;;
28802;SDS011;15949;55.656;37.422;2023-12-22T19:37:26;57.15;;;31.88;;
28802;SDS011;15949;55.656;37.422;2023-12-22T19:42:31;59.30;;;31.10;;
28802;SDS011;15949;55.656;37.422;2023-12-22T19:47:38;55.13;;;31.20;;
28802;SDS011;15949;55.656;37.422;2023-12-22T19:52:43;55.78;;;30.73;;
28802;SDS011;15949;55.656;37.422;2023-12-22T19:57:49;56.03;;;31.73;;
28802;SDS011;15949;55.656;37.422;2023-12-22T20:02:55;56.78;;;31.63;;
28802;SDS011;15949;55.656;37.422;2023-12-22T20:08:00;52.95;;;30.70;;
28802;SDS011;15949;55.656;37.422;2023-12-22T20:13:06;53.13;;;31.20;;
28802;SDS011;15949;55.656;37.422;2023-12-22T20:18:12;58.95;;;32.63;;
28802;SDS011;15949;55.656;37.422;2023-12-22T20:23:17;55.58;;;31.85;;
28802;SDS011;15949;55.656;37.422;2023-12-22T20:28:23;54.30;;;31.02;;
28802;SDS011;15949;55.656;37.422;2023-12-22T20:33:30;55.60;;;31.25;;
28802;SDS011;15949;55.656;37.422;2023-12-22T20:38:36;52.15;;;31.83;;
28802;SDS011;15949;55.656;37.422;2023-12-22T20:43:42;55.08;;;32.08;;
28802;SDS011;15949;55.656;37.422;2023-12-22T20:48:47;58.42;;;33.05;;
28802;SDS011;15949;55.656;37.422;2023-12-22T20:53:53;58.67;;;32.65;;
28802;SDS011;15949;55.656;37.422;2023-12-22T20:58:58;58.25;;;32.63;;
28802;SDS011;15949;55.656;37.422;2023-12-22T21:04:04;55.35;;;32.45;;
28802;SDS011;15949;55.656;37.422;2023-12-22T21:09:10;56.47;;;32.45;;
28802;SDS011;15949;55.656;37.422;2023-12-22T21:14:15;58.85;;;32.05;;
28802;SDS011;15949;55.656;37.422;2023-12-22T21:19:21;55.10;;;33.42;;
28802;SDS011;15949;55.656;37.422;2023-12-22T21:24:27;56.50;;;32.42;;
28802;SDS011;15949;55.656;37.422;2023-12-22T21:29:35;53.13;;;31.77;;
28802;SDS011;15949;55.656;37.422;2023-12-22T21:34:41;53.25;;;32.10;;
28802;SDS011;15949;55.656;37.422;2023-12-22T21:39:47;55.83;;;32.58;;
28802;SDS011;15949;55.656;37.422;2023-12-22T21:44:53;52.90;;;31.98;;
28802;SDS011;15949;55.656;37.422;2023-12-22T21:49:59;56.67;;;34.17;;
28802;SDS011;15949;55.656;37.422;2023-12-22T21:55:04;53.22;;;32.63;;
28802;SDS011;15949;55.656;37.422;2023-12-22T22:00:11;55.83;;;33.35;;
28802;SDS011;15949;55.656;37.422;2023-12-22T22:05:17;56.58;;;33.58;;
28802;SDS011;15949;55.656;37.422;2023-12-22T22:10:23;51.80;;;31.38;;
28802;SDS011;15949;55.656;37.422;2023-12-22T22:15:28;49.13;;;31.35;;
28802;SDS011;15949;55.656;37.422;2023-12-22T22:20:34;51.03;;;31.88;;
28802;SDS011;15949;55.656;37.422;2023-12-22T22:25:41;51.67;;;30.15;;
28802;SDS011;15949;55.656;37.422;2023-12-22T22:30:47;48.15;;;30.35;;
28802;SDS011;15949;55.656;37.422;2023-12-22T22:35:52;52.83;;;33.58;;
28802;SDS011;15949;55.656;37.422;2023-12-22T22:40:58;48.30;;;31.90;;
28802;SDS011;15949;55.656;37.422;2023-12-22T22:46:04;47.13;;;29.15;;
28802;SDS011;15949;55.656;37.422;2023-12-22T22:51:23;49.47;;;31.30;;
28802;SDS011;15949;55.656;37.422;2023-12-22T22:56:30;53.35;;;32.83;;
28802;SDS011;15949;55.656;37.422;2023-12-22T23:01:36;48.35;;;31.75;;
28802;SDS011;15949;55.656;37.422;2023-12-22T23:06:41;50.38;;;32.53;;
28802;SDS011;15949;55.656;37.422;2023-12-22T23:11:47;49.95;;;32.40;;
28802;SDS011;15949;55.656;37.422;2023-12-22T23:16:52;54.25;;;35.00;;
28802;SDS011;15949;55.656;37.422;2023-12-22T23:21:58;54.33;;;33.25;;
28802;SDS011;15949;55.656;37.422;2023-12-22T23:27:04;54.05;;;34.63;;
28802;SDS011;15949;55.656;37.422;2023-12-22T23:32:09;57.00;;;35.08;;
28802;SDS011;15949;55.656;37.422;2023-12-22T23:37:15;57.55;;;35.67;;
28802;SDS011;15949;55.656;37.422;2023-12-22T23:42:21;62.28;;;36.70;;
28802;SDS011;15949;55.656;37.422;2023-12-22T23:47:26;61.42;;;36.85;;
28802;SDS011;15949;55.656;37.422;2023-12-22T23:52:32;61.78;;;36.42;;
28802;SDS011;15949;55.656;37.422;2023-12-22T23:57:38;64.90;;;37.05;;
